Time;durP1;ratioP1;P1;durP2;ratioP2;P2;SDS_P1;SDS_P2;PMS_P1;PMS_P2;Temp;Humidity;BMP_temperature;BMP_pressure;BME280_temperature;BME280_humidity;BME280_pressure;Samples;Min_cycle;Max_cycle;Signal;HPM_P1;HPM_P2
2023/04/06 00:01:03;;;;;;;12.80;9.15;;;;;;;;;;5096506;28;20755;-67
2023/04/06 00:03:30;;;;;;;12.35;9.43;;;;;;;;;;5096539;28;20322;-66
2023/04/06 00:05:58;;;;;;;9.73;8.73;;;;;;;;;;5096613;28;20227;-67
2023/04/06 00:08:25;;;;;;;11.95;10.27;;;;;;;;;;5096308;28;20692;-66
2023/04/06 00:10:52;;;;;;;11.98;8.52;;;;;;;;;;5096517;28;20234;-66
2023/04/06 00:13:19;;;;;;;12.80;9.70;;;;;;;;;;5096523;28;20278;-66
2023/04/06 00:15:47;;;;;;;13.10;8.45;;;;;;;;;;5096171;28;20200;-66
2023/04/06 00:18:15;;;;;;;14.70;9.32;;;;;;;;;;5096536;28;20285;-67
2023/04/06 00:20:43;;;;;;;14.05;9.45;;;;;;;;;;5096146;28;20200;-66
2023/04/06 00:23:10;;;;;;;10.55;9.20;;;;;;;;;;5096442;28;20236;-66
2023/04/06 00:25:37;;;;;;;12.02;9.80;;;;;;;;;;5096206;28;20292;-66
2023/04/06 00:28:05;;;;;;;10.88;9.32;;;;;;;;;;5096640;28;20212;-66
2023/04/06 00:30:32;;;;;;;11.13;8.20;;;;;;;;;;5095866;28;20232;-66
2023/04/06 00:33:00;;;;;;;12.70;10.07;;;;;;;;;;5096037;28;20232;-66
2023/04/06 00:35:29;;;;;;;9.77;8.77;;;;;;;;;;5096119;28;20209;-66
2023/04/06 00:37:56;;;;;;;11.35;9.15;;;;;;;;;;5096327;28;20290;-66
2023/04/06 00:40:23;;;;;;;12.13;8.80;;;;;;;;;;5096030;28;20234;-66
2023/04/06 00:42:51;;;;;;;11.48;9.02;;;;;;;;;;5096233;28;20279;-66
2023/04/06 00:45:18;;;;;;;10.93;9.55;;;;;;;;;;5095929;28;20237;-66
2023/04/06 00:47:45;;;;;;;13.10;9.68;;;;;;;;;;5095585;28;20286;-66
2023/04/06 00:50:13;;;;;;;12.05;9.90;;;;;;;;;;5096408;28;20235;-66
2023/04/06 00:52:41;;;;;;;11.73;9.80;;;;;;;;;;5096024;28;20623;-66
2023/04/06 00:55:09;;;;;;;10.45;9.13;;;;;;;;;;5095452;28;20724;-66
2023/04/06 00:57:37;;;;;;;10.45;9.30;;;;;;;;;;5095410;28;20284;-66
2023/04/06 01:00:04;;;;;;;13.30;9.55;;;;;;;;;;5095903;28;20238;-68
2023/04/06 01:02:32;;;;;;;11.15;9.20;;;;;;;;;;5095227;28;20294;-66
2023/04/06 01:04:59;;;;;;;13.63;9.30;;;;;;;;;;5095341;28;20672;-66
2023/04/06 01:07:26;;;;;;;16.17;10.35;;;;;;;;;;5095223;28;20240;-66
2023/04/06 01:09:56;;;;;;;10.20;9.02;;;;;;;;;;5095735;28;20255;-66
2023/04/06 01:12:23;;;;;;;13.68;8.65;;;;;;;;;;5095067;28;20310;-67
2023/04/06 01:14:50;;;;;;;10.63;9.52;;;;;;;;;;5095555;28;20228;-66
2023/04/06 01:17:18;;;;;;;12.15;9.70;;;;;;;;;;5095319;28;20195;-66
2023/04/06 01:19:45;;;;;;;10.15;9.25;;;;;;;;;;5095097;28;20201;-66
2023/04/06 01:22:16;;;;;;;11.65;9.23;;;;;;;;;;5095259;28;20191;-66
2023/04/06 01:24:44;;;;;;;10.68;8.85;;;;;;;;;;5095079;28;20289;-66
2023/04/06 01:27:11;;;;;;;10.85;9.20;;;;;;;;;;5094857;28;20192;-66
2023/04/06 01:29:40;;;;;;;10.13;9.02;;;;;;;;;;5095675;28;20302;-68
2023/04/06 01:32:08;;;;;;;10.20;9.10;;;;;;;;;;5094615;28;20195;-66
2023/04/06 01:34:35;;;;;;;11.80;8.70;;;;;;;;;;5094764;28;20290;-66
2023/04/06 01:37:03;;;;;;;11.38;9.55;;;;;;;;;;5095264;28;20220;-66
2023/04/06 01:39:32;;;;;;;12.55;10.07;;;;;;;;;;5094703;28;20292;-66
2023/04/06 01:41:59;;;;;;;11.25;9.98;;;;;;;;;;5094855;28;20549;-66
2023/04/06 01:44:26;;;;;;;12.52;10.00;;;;;;;;;;5094556;28;20239;-66
2023/04/06 01:46:54;;;;;;;13.05;10.65;;;;;;;;;;5094847;28;20226;-66
2023/04/06 01:49:21;;;;;;;11.00;9.88;;;;;;;;;;5094435;28;20215;-66
2023/04/06 01:51:48;;;;;;;12.70;9.40;;;;;;;;;;5094728;28;20284;-66
2023/04/06 01:54:15;;;;;;;10.98;9.88;;;;;;;;;;5094420;28;20686;-66
2023/04/06 01:56:44;;;;;;;12.30;9.88;;;;;;;;;;5094601;28;20288;-66
2023/04/06 01:59:11;;;;;;;11.70;10.50;;;;;;;;;;5094642;28;20291;-66
2023/04/06 02:01:38;;;;;;;11.40;10.40;;;;;;;;;;5094496;28;20306;-66
2023/04/06 02:04:06;;;;;;;14.13;9.90;;;;;;;;;;5093964;28;20222;-66
2023/04/06 02:06:33;;;;;;;16.88;9.65;;;;;;;;;;5094413;28;20228;-66
2023/04/06 02:09:00;;;;;;;12.55;10.65;;;;;;;;;;5093300;28;20306;-66
2023/04/06 02:11:27;;;;;;;14.15;11.20;;;;;;;;;;5093968;28;20238;-67
2023/04/06 02:13:57;;;;;;;12.40;8.73;;;;;;;;;;5094579;28;20228;-69
2023/04/06 02:16:24;;;;;;;11.15;10.10;;;;;;;;;;5094571;28;20683;-66
2023/04/06 02:18:51;;;;;;;11.25;9.60;;;;;;;;;;5093931;28;20235;-66
2023/04/06 02:21:20;;;;;;;12.73;9.55;;;;;;;;;;5093825;28;20284;-66
2023/04/06 02:23:47;;;;;;;13.60;9.38;;;;;;;;;;5093890;28;20682;-66
2023/04/06 02:26:14;;;;;;;13.15;10.65;;;;;;;;;;5094045;28;20192;-66
2023/04/06 02:28:41;;;;;;;14.27;9.98;;;;;;;;;;5094108;28;20215;-67
2023/04/06 02:31:10;;;;;;;14.02;10.15;;;;;;;;;;5093753;28;20281;-67
2023/04/06 02:33:38;;;;;;;12.50;9.77;;;;;;;;;;5094226;28;20196;-66
2023/04/06 02:36:05;;;;;;;12.20;10.90;;;;;;;;;;5094227;28;20230;-66
2023/04/06 02:38:32;;;;;;;11.10;9.85;;;;;;;;;;5093499;28;20238;-66
2023/04/06 02:41:00;;;;;;;18.73;11.93;;;;;;;;;;5093968;28;20609;-66
2023/04/06 02:43:27;;;;;;;13.93;10.48;;;;;;;;;;5093482;28;20230;-66
2023/04/06 02:45:54;;;;;;;16.13;11.90;;;;;;;;;;5094076;28;20278;-66
2023/04/06 02:48:23;;;;;;;14.07;11.93;;;;;;;;;;5093338;28;20282;-66
2023/04/06 02:50:50;;;;;;;13.75;10.10;;;;;;;;;;5093411;28;20231;-66
2023/04/06 02:53:17;;;;;;;14.93;10.50;;;;;;;;;;5093872;28;20228;-66
2023/04/06 02:55:45;;;;;;;12.48;10.13;;;;;;;;;;5093681;28;20202;-66
2023/04/06 02:58:12;;;;;;;13.43;11.30;;;;;;;;;;5093757;28;20224;-66
2023/04/06 03:00:39;;;;;;;11.52;10.43;;;;;;;;;;5093308;28;20691;-66
2023/04/06 03:03:07;;;;;;;13.88;10.23;;;;;;;;;;5093303;28;20270;-66
2023/04/06 03:05:36;;;;;;;17.83;10.60;;;;;;;;;;5093313;28;20619;-66
2023/04/06 03:08:03;;;;;;;14.52;11.32;;;;;;;;;;5093492;28;20196;-66
2023/04/06 03:10:30;;;;;;;11.85;10.75;;;;;;;;;;5093378;28;20273;-66
2023/04/06 03:12:57;;;;;;;13.18;10.90;;;;;;;;;;5093042;28;20723;-66
2023/04/06 03:15:25;;;;;;;15.60;13.10;;;;;;;;;;5093069;28;20235;-66
2023/04/06 03:17:52;;;;;;;12.75;11.30;;;;;;;;;;5093404;28;20242;-66
2023/04/06 03:20:19;;;;;;;12.20;10.90;;;;;;;;;;5096032;28;20285;-66
2023/04/06 03:22:48;;;;;;;13.88;11.30;;;;;;;;;;5097543;28;20696;-66
2023/04/06 03:25:15;;;;;;;14.60;11.50;;;;;;;;;;5097778;28;20661;-66
2023/04/06 03:27:42;;;;;;;12.20;10.55;;;;;;;;;;5097407;28;20622;-66
2023/04/06 03:30:10;;;;;;;15.60;11.77;;;;;;;;;;5097790;28;20227;-66
2023/04/06 03:32:37;;;;;;;13.13;11.48;;;;;;;;;;5096881;28;20235;-66
2023/04/06 03:35:05;;;;;;;12.95;11.32;;;;;;;;;;5097827;28;20242;-66
2023/04/06 03:37:32;;;;;;;15.13;10.60;;;;;;;;;;5097393;28;20295;-68
2023/04/06 03:40:01;;;;;;;11.73;10.63;;;;;;;;;;5096915;28;20290;-63
2023/04/06 03:42:28;;;;;;;11.50;9.65;;;;;;;;;;5097428;28;20614;-67
2023/04/06 03:44:55;;;;;;;14.55;12.23;;;;;;;;;;5097418;28;20192;-66
2023/04/06 03:47:22;;;;;;;15.77;11.10;;;;;;;;;;5097634;28;20238;-67
2023/04/06 03:49:50;;;;;;;15.60;11.43;;;;;;;;;;5096688;28;20308;-66
2023/04/06 03:52:17;;;;;;;16.98;12.60;;;;;;;;;;5092843;28;20196;-66
2023/04/06 03:54:44;;;;;;;14.13;10.52;;;;;;;;;;5096853;28;20608;-66
2023/04/06 03:57:13;;;;;;;16.00;11.50;;;;;;;;;;5096619;28;20237;-66
2023/04/06 03:59:40;;;;;;;19.73;11.30;;;;;;;;;;5096516;28;20695;-66
2023/04/06 04:02:07;;;;;;;17.67;12.30;;;;;;;;;;5096515;28;20289;-66
2023/04/06 04:04:34;;;;;;;14.48;11.10;;;;;;;;;;5096844;28;20284;-66
2023/04/06 04:07:02;;;;;;;11.98;10.65;;;;;;;;;;5096839;28;20256;-66
2023/04/06 04:09:29;;;;;;;12.60;10.57;;;;;;;;;;5096579;28;20335;-66
2023/04/06 04:11:57;;;;;;;15.07;11.18;;;;;;;;;;5096382;28;20649;-66
2023/04/06 04:14:25;;;;;;;13.70;11.20;;;;;;;;;;5096291;28;20595;-66
2023/04/06 04:16:52;;;;;;;12.90;11.55;;;;;;;;;;5096658;28;20279;-66
2023/04/06 04:19:20;;;;;;;19.92;11.73;;;;;;;;;;5096346;28;20603;-69
2023/04/06 04:21:47;;;;;;;13.93;12.50;;;;;;;;;;5096218;28;20279;-68
2023/04/06 04:24:15;;;;;;;15.85;11.93;;;;;;;;;;5096087;28;20210;-66
2023/04/06 04:26:42;;;;;;;16.67;13.10;;;;;;;;;;5095992;28;20294;-67
2023/04/06 04:29:09;;;;;;;13.45;11.27;;;;;;;;;;5096367;28;20195;-66
2023/04/06 04:31:38;;;;;;;15.45;11.85;;;;;;;;;;5095222;28;20288;-66
2023/04/06 04:34:06;;;;;;;15.88;11.48;;;;;;;;;;5096409;28;20235;-66
2023/04/06 04:36:33;;;;;;;22.75;11.90;;;;;;;;;;5096114;28;20276;-66
2023/04/06 04:39:01;;;;;;;13.20;11.50;;;;;;;;;;5096482;28;20635;-66
2023/04/06 04:41:29;;;;;;;13.07;11.45;;;;;;;;;;5096299;28;20191;-66
2023/04/06 04:43:56;;;;;;;13.82;10.13;;;;;;;;;;5095621;28;20792;-66
2023/04/06 04:46:23;;;;;;;16.88;11.93;;;;;;;;;;5095937;28;20280;-66
2023/04/06 04:48:52;;;;;;;16.27;11.77;;;;;;;;;;5095810;28;20359;-66
2023/04/06 04:51:20;;;;;;;17.98;12.85;;;;;;;;;;5095579;28;20251;-66
2023/04/06 04:53:47;;;;;;;15.60;12.30;;;;;;;;;;5095492;28;20213;-66
2023/04/06 04:56:15;;;;;;;13.85;10.98;;;;;;;;;;5095767;28;20285;-66
2023/04/06 04:58:42;;;;;;;16.88;12.75;;;;;;;;;;5095395;28;20647;-67
2023/04/06 05:01:09;;;;;;;15.50;12.98;;;;;;;;;;5095672;28;20251;-66
2023/04/06 05:03:38;;;;;;;18.38;12.13;;;;;;;;;;5095429;28;20307;-67
2023/04/06 05:06:07;;;;;;;22.85;13.65;;;;;;;;;;5095953;28;20195;-66
2023/04/06 05:08:35;;;;;;;13.95;12.48;;;;;;;;;;5095422;28;20191;-66
2023/04/06 05:11:02;;;;;;;15.95;12.75;;;;;;;;;;5095411;28;20220;-69
2023/04/06 05:13:31;;;;;;;26.55;13.60;;;;;;;;;;5095313;28;20293;-67
2023/04/06 05:15:58;;;;;;;15.10;13.05;;;;;;;;;;5095395;28;20195;-66
2023/04/06 05:18:26;;;;;;;15.02;12.70;;;;;;;;;;5095063;28;20253;-67
2023/04/06 05:20:53;;;;;;;15.73;13.48;;;;;;;;;;5095250;28;20252;-66
2023/04/06 05:23:21;;;;;;;17.67;12.43;;;;;;;;;;5094983;28;20196;-67
2023/04/06 05:25:49;;;;;;;18.27;13.43;;;;;;;;;;5094811;28;20232;-67
2023/04/06 05:28:16;;;;;;;15.93;13.00;;;;;;;;;;5095584;28;20309;-67
2023/04/06 05:30:43;;;;;;;21.95;12.55;;;;;;;;;;5095029;28;20238;-68
2023/04/06 05:33:11;;;;;;;17.33;13.23;;;;;;;;;;5094652;28;20655;-68
2023/04/06 05:35:38;;;;;;;16.13;12.98;;;;;;;;;;5095094;28;20235;-68
2023/04/06 05:38:07;;;;;;;14.93;13.15;;;;;;;;;;5095080;28;20249;-68
2023/04/06 05:40:36;;;;;;;17.60;12.90;;;;;;;;;;5094835;28;20231;-67
2023/04/06 05:43:04;;;;;;;31.42;24.08;;;;;;;;;;5093914;28;20568;-68
2023/04/06 05:45:31;;;;;;;23.95;18.58;;;;;;;;;;5094744;28;20195;-67
2023/04/06 05:47:59;;;;;;;19.58;14.63;;;;;;;;;;5094860;28;20320;-67
2023/04/06 05:50:26;;;;;;;21.25;15.35;;;;;;;;;;5094689;28;20251;-68
2023/04/06 05:52:53;;;;;;;19.98;14.30;;;;;;;;;;5094452;28;20281;-66
2023/04/06 05:55:20;;;;;;;20.52;13.35;;;;;;;;;;5094272;28;20232;-67
2023/04/06 05:57:49;;;;;;;22.77;13.82;;;;;;;;;;5094704;28;20195;-68
2023/04/06 06:00:16;;;;;;;15.95;12.32;;;;;;;;;;5094181;28;20242;-67
2023/04/06 06:02:44;;;;;;;15.05;13.45;;;;;;;;;;5094373;28;20643;-67
2023/04/06 06:05:11;;;;;;;14.82;12.45;;;;;;;;;;5094411;28;20192;-67
2023/04/06 06:07:39;;;;;;;16.55;12.63;;;;;;;;;;5094480;28;20201;-67
2023/04/06 06:10:06;;;;;;;15.90;12.70;;;;;;;;;;5094039;28;20753;-68
2023/04/06 06:12:33;;;;;;;21.58;13.40;;;;;;;;;;5094765;28;20228;-67
2023/04/06 06:15:02;;;;;;;21.35;14.00;;;;;;;;;;5094356;28;20252;-67
2023/04/06 06:17:29;;;;;;;22.80;14.88;;;;;;;;;;5094298;28;20285;-69
2023/04/06 06:19:56;;;;;;;18.48;12.82;;;;;;;;;;5093858;28;20756;-67
2023/04/06 06:22:29;;;;;;;16.83;12.55;;;;;;;;;;5093927;28;20222;-67
2023/04/06 06:24:56;;;;;;;16.27;12.10;;;;;;;;;;5093886;28;20189;-67
2023/04/06 06:27:23;;;;;;;15.18;12.23;;;;;;;;;;5094151;28;20283;-68
2023/04/06 06:29:50;;;;;;;17.00;12.93;;;;;;;;;;5093900;28;20233;-67
2023/04/06 06:32:19;;;;;;;19.83;13.98;;;;;;;;;;5094060;28;20592;-67
2023/04/06 06:34:47;;;;;;;15.82;11.35;;;;;;;;;;5093628;28;20199;-67
2023/04/06 06:37:15;;;;;;;16.08;12.27;;;;;;;;;;5093969;28;20236;-66
2023/04/06 06:39:42;;;;;;;16.17;12.13;;;;;;;;;;5093514;28;20235;-67
2023/04/06 06:42:09;;;;;;;14.90;12.05;;;;;;;;;;5093855;28;20319;-67
2023/04/06 06:44:36;;;;;;;19.55;12.15;;;;;;;;;;5094035;28;20235;-67
2023/04/06 06:47:03;;;;;;;24.25;13.65;;;;;;;;;;5093759;28;20228;-67
2023/04/06 06:49:32;;;;;;;22.60;15.48;;;;;;;;;;5093787;28;20200;-67
2023/04/06 06:51:59;;;;;;;18.13;13.65;;;;;;;;;;5093521;28;20310;-68
2023/04/06 06:54:27;;;;;;;19.80;12.82;;;;;;;;;;5093486;28;20240;-67
2023/04/06 06:56:54;;;;;;;19.92;13.40;;;;;;;;;;5093648;28;20232;-67
2023/04/06 06:59:22;;;;;;;15.35;13.02;;;;;;;;;;5093661;28;20226;-67
2023/04/06 07:01:49;;;;;;;14.10;11.98;;;;;;;;;;5093675;28;20238;-67
2023/04/06 07:04:16;;;;;;;17.80;10.73;;;;;;;;;;5093165;28;20305;-67
2023/04/06 07:06:46;;;;;;;18.95;12.48;;;;;;;;;;5093555;28;20534;-67
2023/04/06 07:09:13;;;;;;;18.48;12.35;;;;;;;;;;5093586;28;20279;-67
2023/04/06 07:11:40;;;;;;;16.15;12.20;;;;;;;;;;5093537;28;20265;-67
2023/04/06 07:14:07;;;;;;;13.52;9.80;;;;;;;;;;5093536;28;20270;-67
2023/04/06 07:16:35;;;;;;;18.35;11.18;;;;;;;;;;5093542;28;20232;-67
2023/04/06 07:19:02;;;;;;;12.82;10.30;;;;;;;;;;5093116;28;20253;-67
2023/04/06 07:21:29;;;;;;;18.20;10.63;;;;;;;;;;5092885;28;20210;-67
2023/04/06 07:23:58;;;;;;;16.33;10.48;;;;;;;;;;5093146;28;20289;-67
2023/04/06 07:26:25;;;;;;;12.65;10.45;;;;;;;;;;5093033;28;20200;-68
2023/04/06 07:28:53;;;;;;;12.07;9.80;;;;;;;;;;5093875;28;20200;-67
2023/04/06 07:31:20;;;;;;;12.05;10.07;;;;;;;;;;5093507;28;20316;-67
2023/04/06 07:33:47;;;;;;;12.88;9.75;;;;;;;;;;5093255;28;20200;-67
2023/04/06 07:36:14;;;;;;;12.65;10.50;;;;;;;;;;5093248;28;20228;-67
2023/04/06 07:38:42;;;;;;;14.40;10.57;;;;;;;;;;5093360;28;20201;-67
2023/04/06 07:41:11;;;;;;;18.20;9.98;;;;;;;;;;5093242;28;20295;-67
2023/04/06 07:43:38;;;;;;;15.38;10.80;;;;;;;;;;5093279;28;20554;-67
2023/04/06 07:46:06;;;;;;;17.45;9.43;;;;;;;;;;5093196;28;20192;-67
2023/04/06 07:48:33;;;;;;;14.55;10.00;;;;;;;;;;5092926;28;20190;-67
2023/04/06 07:51:04;;;;;;;13.70;9.52;;;;;;;;;;5092691;28;20219;-68
2023/04/06 07:53:31;;;;;;;11.90;9.25;;;;;;;;;;5093589;28;20292;-68
2023/04/06 07:55:59;;;;;;;12.13;8.73;;;;;;;;;;5092760;28;20211;-67
2023/04/06 07:58:28;;;;;;;12.73;9.55;;;;;;;;;;5093984;28;20711;-67
2023/04/06 08:00:57;;;;;;;12.65;8.98;;;;;;;;;;5092699;28;20237;-67
2023/04/06 08:03:26;;;;;;;13.90;9.20;;;;;;;;;;5092306;28;20233;-68
2023/04/06 08:05:53;;;;;;;10.48;7.97;;;;;;;;;;5092616;28;20204;-69
2023/04/06 08:08:21;;;;;;;15.80;9.80;;;;;;;;;;5096745;28;20205;-67
2023/04/06 08:10:48;;;;;;;12.48;8.80;;;;;;;;;;5096293;28;20220;-68
2023/04/06 08:13:15;;;;;;;12.20;9.50;;;;;;;;;;5096418;28;20229;-67
2023/04/06 08:15:44;;;;;;;12.27;8.13;;;;;;;;;;5096641;28;20200;-68
2023/04/06 08:18:11;;;;;;;10.60;8.57;;;;;;;;;;5096536;28;20197;-68
2023/04/06 08:20:39;;;;;;;10.52;8.82;;;;;;;;;;5096887;28;20199;-67
2023/04/06 08:23:09;;;;;;;11.75;9.60;;;;;;;;;;5096430;28;20194;-67
2023/04/06 08:25:36;;;;;;;11.00;9.23;;;;;;;;;;5096382;28;20201;-68
2023/04/06 08:28:04;;;;;;;12.07;10.38;;;;;;;;;;5096251;28;20193;-67
2023/04/06 08:30:31;;;;;;;13.18;9.52;;;;;;;;;;5096236;28;20315;-67
2023/04/06 08:33:06;;;;;;;13.20;8.95;;;;;;;;;;5096247;28;20244;-67
2023/04/06 08:35:33;;;;;;;22.27;14.98;;;;;;;;;;5095834;28;20223;-67
2023/04/06 08:38:00;;;;;;;13.23;10.88;;;;;;;;;;5095843;28;20724;-67
2023/04/06 08:40:27;;;;;;;14.50;10.80;;;;;;;;;;5095882;28;20226;-67
2023/04/06 08:42:56;;;;;;;11.93;10.30;;;;;;;;;;5095727;28;20929;-67
2023/04/06 08:45:24;;;;;;;12.45;10.65;;;;;;;;;;5095783;28;20723;-67
2023/04/06 08:47:52;;;;;;;12.25;9.65;;;;;;;;;;5095596;28;20233;-67
2023/04/06 08:50:20;;;;;;;13.68;10.00;;;;;;;;;;5096255;28;20255;-67
2023/04/06 08:52:48;;;;;;;12.40;9.83;;;;;;;;;;5095491;28;20190;-68
2023/04/06 08:55:16;;;;;;;11.07;9.98;;;;;;;;;;5095551;28;20526;-67
2023/04/06 08:57:43;;;;;;;15.55;10.95;;;;;;;;;;5095443;28;20284;-68
2023/04/06 09:00:12;;;;;;;15.48;10.23;;;;;;;;;;5095880;28;20353;-68
2023/04/06 09:02:40;;;;;;;19.10;11.15;;;;;;;;;;5095714;28;20268;-68
2023/04/06 09:05:09;;;;;;;11.60;10.40;;;;;;;;;;5096175;28;20504;-68
2023/04/06 09:07:38;;;;;;;19.05;10.63;;;;;;;;;;5095229;28;20295;-68
2023/04/06 09:10:06;;;;;;;14.02;10.70;;;;;;;;;;5095613;28;20190;-68
2023/04/06 09:12:33;;;;;;;11.48;10.27;;;;;;;;;;5095626;28;20259;-68
2023/04/06 09:15:02;;;;;;;18.63;12.10;;;;;;;;;;5095261;28;20236;-68
2023/04/06 09:17:32;;;;;;;13.67;12.20;;;;;;;;;;5094799;28;20254;-69
2023/04/06 09:19:59;;;;;;;13.70;11.03;;;;;;;;;;5095778;28;20470;-69
2023/04/06 09:22:29;;;;;;;18.08;11.10;;;;;;;;;;5095773;28;20541;-68
2023/04/06 09:24:58;;;;;;;14.70;10.70;;;;;;;;;;5095323;28;20276;-68
2023/04/06 09:27:34;;;;;;;17.77;11.27;;;;;;;;;;5094893;28;20233;-68
2023/04/06 09:30:05;;;;;;;20.83;12.17;;;;;;;;;;5095526;28;20439;-68
2023/04/06 09:32:32;;;;;;;17.80;12.47;;;;;;;;;;5094725;28;20478;-68
2023/04/06 09:35:07;;;;;;;16.63;12.37;;;;;;;;;;5095425;28;20870;-68
2023/04/06 09:37:35;;;;;;;16.70;11.50;;;;;;;;;;5094781;28;20427;-68
2023/04/06 09:40:08;;;;;;;15.37;11.73;;;;;;;;;;5094696;28;20932;-67
2023/04/06 09:42:35;;;;;;;15.60;13.83;;;;;;;;;;5094611;28;20438;-68
2023/04/06 09:45:02;;;;;;;20.43;12.57;;;;;;;;;;5094781;28;20566;-68
2023/04/06 09:47:30;;;;;;;15.30;11.90;;;;;;;;;;5094533;28;20980;-68
2023/04/06 09:49:58;;;;;;;18.10;12.80;;;;;;;;;;5095708;28;20887;-68
2023/04/06 09:52:28;;;;;;;17.40;13.00;;;;;;;;;;5094620;28;20909;-68
2023/04/06 09:54:57;;;;;;;18.53;14.07;;;;;;;;;;5094856;28;20478;-68
2023/04/06 09:57:26;;;;;;;15.47;13.47;;;;;;;;;;5094215;28;20923;-68
2023/04/06 09:59:59;;;;;;;19.43;13.73;;;;;;;;;;5094234;28;20471;-68
2023/04/06 10:02:31;;;;;;;22.67;15.13;;;;;;;;;;5094013;28;20517;-68
2023/04/06 10:05:01;;;;;;;20.80;15.20;;;;;;;;;;5094230;28;20500;-68
2023/04/06 10:07:28;;;;;;;19.67;14.90;;;;;;;;;;5094351;28;20865;-68
2023/04/06 10:09:56;;;;;;;20.50;15.40;;;;;;;;;;5094418;28;20472;-68
2023/04/06 10:12:23;;;;;;;20.17;15.17;;;;;;;;;;5093871;28;20471;-69
2023/04/06 10:14:52;;;;;;;22.90;15.50;;;;;;;;;;5094332;28;20531;-68
2023/04/06 10:17:19;;;;;;;19.27;15.20;;;;;;;;;;5094171;28;20493;-69
2023/04/06 10:19:51;;;;;;;24.20;16.10;;;;;;;;;;5094287;28;20869;-68
2023/04/06 10:22:24;;;;;;;20.37;15.90;;;;;;;;;;5093959;28;20505;-68
2023/04/06 10:24:51;;;;;;;26.03;17.23;;;;;;;;;;5094180;28;20521;-68
2023/04/06 10:27:28;;;;;;;20.23;16.00;;;;;;;;;;5093788;28;20489;-68
2023/04/06 10:30:02;;;;;;;19.00;16.17;;;;;;;;;;5093318;28;20906;-68
2023/04/06 10:32:33;;;;;;;21.90;16.53;;;;;;;;;;5093677;28;20499;-68
2023/04/06 10:35:06;;;;;;;19.40;15.07;;;;;;;;;;5093625;28;20476;-68
2023/04/06 10:37:47;;;;;;;20.33;15.17;;;;;;;;;;5093668;28;20463;-69
2023/04/06 10:40:19;;;;;;;22.20;16.27;;;;;;;;;;5093651;28;20511;-68
2023/04/06 10:42:47;;;;;;;22.10;15.07;;;;;;;;;;5093537;28;21002;-68
2023/04/06 10:45:22;;;;;;;17.87;14.80;;;;;;;;;;5093792;28;20793;-68
2023/04/06 10:47:49;;;;;;;19.83;16.37;;;;;;;;;;5093717;28;20430;-69
2023/04/06 10:50:17;;;;;;;21.20;15.20;;;;;;;;;;5094255;28;20476;-68
2023/04/06 10:52:45;;;;;;;16.70;13.87;;;;;;;;;;5094065;28;20561;-66
2023/04/06 10:55:13;;;;;;;17.17;14.33;;;;;;;;;;5093624;28;20440;-68
2023/04/06 10:57:40;;;;;;;22.10;15.60;;;;;;;;;;5093996;28;20502;-68
2023/04/06 11:00:09;;;;;;;18.10;15.17;;;;;;;;;;5093546;28;20875;-68
2023/04/06 11:02:38;;;;;;;19.47;14.20;;;;;;;;;;5093300;28;20512;-68
2023/04/06 11:05:06;;;;;;;22.90;14.90;;;;;;;;;;5093809;28;20865;-68
2023/04/06 11:07:33;;;;;;;22.13;15.90;;;;;;;;;;5093509;28;20466;-68
2023/04/06 11:10:01;;;;;;;20.90;15.20;;;;;;;;;;5093462;28;20504;-68
2023/04/06 11:12:28;;;;;;;19.60;14.27;;;;;;;;;;5093730;28;20517;-68
2023/04/06 11:15:00;;;;;;;17.43;14.37;;;;;;;;;;5093081;28;20491;-68
2023/04/06 11:17:28;;;;;;;23.60;18.20;;;;;;;;;;5093743;28;20425;-68
2023/04/06 11:19:57;;;;;;;19.90;15.47;;;;;;;;;;5093271;28;20470;-67
2023/04/06 11:22:24;;;;;;;23.00;16.80;;;;;;;;;;5093052;28;20444;-67
2023/04/06 11:24:52;;;;;;;18.70;15.80;;;;;;;;;;5093278;28;20454;-67
2023/04/06 11:27:20;;;;;;;22.27;17.70;;;;;;;;;;5093744;28;20497;-67
2023/04/06 11:29:49;;;;;;;18.93;15.40;;;;;;;;;;5092839;28;20464;-68
2023/04/06 11:32:21;;;;;;;18.23;14.80;;;;;;;;;;5093451;28;20484;-68
2023/04/06 11:34:49;;;;;;;23.50;15.83;;;;;;;;;;5093302;28;20793;-69
2023/04/06 11:37:18;;;;;;;17.90;14.10;;;;;;;;;;5093339;28;20510;-68
2023/04/06 11:39:51;;;;;;;19.93;14.60;;;;;;;;;;5093178;28;20521;-68
2023/04/06 11:42:25;;;;;;;23.03;15.00;;;;;;;;;;5097454;28;20427;-68
2023/04/06 11:44:52;;;;;;;18.73;15.10;;;;;;;;;;5096890;28;20609;-67
2023/04/06 11:47:22;;;;;;;20.77;16.20;;;;;;;;;;5096885;28;20524;-68
2023/04/06 11:49:50;;;;;;;18.83;15.17;;;;;;;;;;5096789;28;20472;-68
2023/04/06 11:52:19;;;;;;;16.60;13.83;;;;;;;;;;5097048;28;20481;-68
2023/04/06 11:54:46;;;;;;;18.73;13.87;;;;;;;;;;5097070;28;20535;-67
2023/04/06 11:57:14;;;;;;;16.70;13.23;;;;;;;;;;5097015;28;20519;-68
2023/04/06 11:59:41;;;;;;;17.40;14.20;;;;;;;;;;5097119;28;20452;-66
2023/04/06 12:02:08;;;;;;;18.90;14.50;;;;;;;;;;5096702;28;20525;-67
2023/04/06 12:04:36;;;;;;;16.37;13.67;;;;;;;;;;5096530;28;20948;-68
2023/04/06 12:07:03;;;;;;;16.90;13.50;;;;;;;;;;5096494;28;20933;-67
2023/04/06 12:09:34;;;;;;;20.53;13.40;;;;;;;;;;5096330;28;20589;-67
2023/04/06 12:12:01;;;;;;;16.63;13.23;;;;;;;;;;5096891;28;20747;-67
2023/04/06 12:14:30;;;;;;;17.17;12.80;;;;;;;;;;5096681;28;20443;-68
2023/04/06 12:16:57;;;;;;;13.93;12.30;;;;;;;;;;5096680;28;20485;-67
2023/04/06 12:19:25;;;;;;;14.97;13.20;;;;;;;;;;5096444;28;20518;-68
2023/04/06 12:21:53;;;;;;;17.93;12.93;;;;;;;;;;5096464;28;20451;-67
2023/04/06 12:24:20;;;;;;;17.77;11.97;;;;;;;;;;5096143;28;20939;-67
2023/04/06 12:26:50;;;;;;;19.60;12.17;;;;;;;;;;5096705;28;20434;-68
2023/04/06 12:29:17;;;;;;;14.30;10.77;;;;;;;;;;5095997;28;20442;-68
2023/04/06 12:31:44;;;;;;;12.63;10.53;;;;;;;;;;5096158;28;20530;-68
2023/04/06 12:34:12;;;;;;;12.23;10.73;;;;;;;;;;5096405;28;20448;-68
2023/04/06 12:36:39;;;;;;;16.03;11.83;;;;;;;;;;5095965;28;20439;-67
2023/04/06 12:39:06;;;;;;;17.17;12.87;;;;;;;;;;5096052;28;20859;-67
2023/04/06 12:41:34;;;;;;;16.57;13.17;;;;;;;;;;5096110;28;20434;-67
2023/04/06 12:44:03;;;;;;;16.00;12.13;;;;;;;;;;5096097;28;20940;-67
2023/04/06 12:46:30;;;;;;;15.27;11.87;;;;;;;;;;5096019;28;20470;-67
2023/04/06 12:48:58;;;;;;;16.37;12.67;;;;;;;;;;5096266;28;20449;-67
2023/04/06 12:51:26;;;;;;;15.33;12.23;;;;;;;;;;5095857;28;20447;-66
2023/04/06 12:53:53;;;;;;;18.57;13.50;;;;;;;;;;5095257;28;20490;-72
2023/04/06 12:56:22;;;;;;;19.20;12.53;;;;;;;;;;5095933;28;20474;-67
2023/04/06 12:58:49;;;;;;;16.37;12.47;;;;;;;;;;5095883;28;20854;-69
2023/04/06 13:01:18;;;;;;;18.70;13.47;;;;;;;;;;5095468;28;20985;-67
2023/04/06 13:03:45;;;;;;;17.80;14.30;;;;;;;;;;5096415;28;20547;-66
2023/04/06 13:06:14;;;;;;;18.43;13.17;;;;;;;;;;5095302;28;20526;-67
2023/04/06 13:08:42;;;;;;;19.03;13.50;;;;;;;;;;5095274;28;20447;-66
2023/04/06 13:11:09;;;;;;;19.30;14.70;;;;;;;;;;5084562;28;20444;-68
2023/04/06 13:13:38;;;;;;;18.97;13.50;;;;;;;;;;5075012;28;20479;-67
2023/04/06 13:16:06;;;;;;;19.43;14.20;;;;;;;;;;5090356;28;20879;-67
2023/04/06 13:18:36;;;;;;;21.73;15.30;;;;;;;;;;5095493;28;20474;-67
2023/04/06 13:21:03;;;;;;;19.57;14.10;;;;;;;;;;5095744;28;20437;-67
2023/04/06 13:23:31;;;;;;;17.40;13.87;;;;;;;;;;5095430;28;20841;-67
2023/04/06 13:26:01;;;;;;;19.17;14.93;;;;;;;;;;5094937;28;20473;-67
2023/04/06 13:28:28;;;;;;;17.93;13.40;;;;;;;;;;5094964;28;20530;-68
2023/04/06 13:30:56;;;;;;;16.37;13.67;;;;;;;;;;5095607;28;20873;-68
2023/04/06 13:33:24;;;;;;;18.00;14.83;;;;;;;;;;5095251;28;20574;-68
2023/04/06 13:35:52;;;;;;;20.40;14.60;;;;;;;;;;5094902;28;20816;-68
2023/04/06 13:38:20;;;;;;;18.83;14.33;;;;;;;;;;5095099;28;20439;-67
2023/04/06 13:40:47;;;;;;;21.80;14.67;;;;;;;;;;5095012;28;20480;-67
2023/04/06 13:43:15;;;;;;;15.20;13.03;;;;;;;;;;5094757;28;20504;-67
2023/04/06 13:45:42;;;;;;;19.83;14.57;;;;;;;;;;5094800;28;20442;-67
2023/04/06 13:48:09;;;;;;;18.30;13.87;;;;;;;;;;5094830;28;20476;-67
2023/04/06 13:50:37;;;;;;;22.23;14.50;;;;;;;;;;5094677;28;21091;-67
2023/04/06 13:53:05;;;;;;;20.77;15.13;;;;;;;;;;5094760;28;20474;-66
2023/04/06 13:55:32;;;;;;;20.00;14.83;;;;;;;;;;5094555;28;20537;-68
2023/04/06 13:58:00;;;;;;;22.50;14.20;;;;;;;;;;5094559;28;20445;-67
2023/04/06 14:00:27;;;;;;;22.13;15.77;;;;;;;;;;5094034;28;20436;-68
2023/04/06 14:02:55;;;;;;;19.17;15.20;;;;;;;;;;5094346;28;20527;-68
2023/04/06 14:05:23;;;;;;;21.70;15.40;;;;;;;;;;5093063;28;20454;-67
2023/04/06 14:07:50;;;;;;;25.23;16.97;;;;;;;;;;5093959;28;20533;-67
2023/04/06 14:10:22;;;;;;;22.93;16.60;;;;;;;;;;5093970;28;20469;-67
2023/04/06 14:12:50;;;;;;;23.73;15.67;;;;;;;;;;5094062;28;20506;-67
2023/04/06 14:15:17;;;;;;;23.30;16.67;;;;;;;;;;5094121;28;20521;-67
2023/04/06 14:17:44;;;;;;;23.37;18.20;;;;;;;;;;5094072;28;20444;-67
2023/04/06 14:20:14;;;;;;;19.13;15.30;;;;;;;;;;5094144;28;20442;-68
2023/04/06 14:22:42;;;;;;;20.93;16.37;;;;;;;;;;5093979;28;20477;-67
2023/04/06 14:25:10;;;;;;;20.07;15.97;;;;;;;;;;5094176;28;20447;-67